sensor_id;sensor_type;location;lat;lon;timestamp;pressure;altitude;pressure_sealevel;temperature;humidity
11114;BME280;5610;52.154;9.198;2022-12-18T00:01:18;102158.00;;;-5.67;100.00
11114;BME280;5610;52.154;9.198;2022-12-18T00:04:06;102154.31;;;-5.75;100.00
11114;BME280;5610;52.154;9.198;2022-12-18T00:06:52;102156.03;;;-5.75;100.00
11114;BME280;5610;52.154;9.198;2022-12-18T00:09:38;102159.97;;;-5.58;100.00
11114;BME280;5610;52.154;9.198;2022-12-18T00:12:24;102153.13;;;-5.56;100.00
11114;BME280;5610;52.154;9.198;2022-12-18T00:15:10;102153.06;;;-5.58;100.00
11114;BME280;5610;52.154;9.198;2022-12-18T00:17:55;102159.91;;;-5.61;100.00
11114;BME280;5610;52.154;9.198;2022-12-18T00:20:40;102169.31;;;-5.65;100.00
11114;BME280;5610;52.154;9.198;2022-12-18T00:23:26;102175.22;;;-5.70;100.00
11114;BME280;5610;52.154;9.198;2022-12-18T00:26:13;102180.22;;;-5.76;100.00
11114;BME280;5610;52.154;9.198;2022-12-18T00:29:04;102171.38;;;-5.83;100.00
11114;BME280;5610;52.154;9.198;2022-12-18T00:31:49;102173.59;;;-5.97;100.00
11114;BME280;5610;52.154;9.198;2022-12-18T00:34:35;102177.97;;;-5.94;100.00
11114;BME280;5610;52.154;9.198;2022-12-18T00:37:20;102179.69;;;-5.95;100.00
11114;BME280;5610;52.154;9.198;2022-12-18T00:40:10;102185.00;;;-5.92;100.00
11114;BME280;5610;52.154;9.198;2022-12-18T00:42:55;102184.16;;;-5.89;100.00
11114;BME280;5610;52.154;9.198;2022-12-18T00:45:41;102174.66;;;-5.89;100.00
11114;BME280;5610;52.154;9.198;2022-12-18T00:48:26;102178.13;;;-5.88;100.00
11114;BME280;5610;52.154;9.198;2022-12-18T00:51:12;102179.84;;;-5.89;100.00
11114;BME280;5610;52.154;9.198;2022-12-18T00:53:57;102177.44;;;-5.83;100.00
11114;BME280;5610;52.154;9.198;2022-12-18T00:56:42;102178.31;;;-5.82;100.00
11114;BME280;5610;52.154;9.198;2022-12-18T00:59:28;102177.41;;;-5.84;100.00
11114;BME280;5610;52.154;9.198;2022-12-18T01:02:15;102179.06;;;-5.86;100.00
11114;BME280;5610;52.154;9.198;2022-12-18T01:05:00;102180.38;;;-6.00;100.00
11114;BME280;5610;52.154;9.198;2022-12-18T01:07:46;102178.81;;;-5.95;100.00
11114;BME280;5610;52.154;9.198;2022-12-18T01:10:31;102179.50;;;-6.01;100.00
11114;BME280;5610;52.154;9.198;2022-12-18T01:13:16;102177.94;;;-5.96;100.00
11114;BME280;5610;52.154;9.198;2022-12-18T01:16:02;102171.19;;;-6.19;100.00
11114;BME280;5610;52.154;9.198;2022-12-18T01:18:51;102170.66;;;-6.07;100.00
11114;BME280;5610;52.154;9.198;2022-12-18T01:21:37;102176.94;;;-5.99;100.00
11114;BME280;5610;52.154;9.198;2022-12-18T01:24:22;102170.53;;;-6.12;100.00
11114;BME280;5610;52.154;9.198;2022-12-18T01:27:08;102164.03;;;-5.98;100.00
11114;BME280;5610;52.154;9.198;2022-12-18T01:29:53;102167.22;;;-6.06;100.00
11114;BME280;5610;52.154;9.198;2022-12-18T01:32:38;102177.97;;;-5.94;100.00
11114;BME280;5610;52.154;9.198;2022-12-18T01:35:25;102176.31;;;-5.92;100.00
11114;BME280;5610;52.154;9.198;2022-12-18T01:38:11;102185.25;;;-6.11;100.00
11114;BME280;5610;52.154;9.198;2022-12-18T01:40:57;102183.97;;;-5.97;100.00
11114;BME280;5610;52.154;9.198;2022-12-18T01:43:49;102183.78;;;-6.03;100.00
11114;BME280;5610;52.154;9.198;2022-12-18T01:46:34;102182.78;;;-6.06;100.00
11114;BME280;5610;52.154;9.198;2022-12-18T01:49:20;102174.25;;;-6.04;100.00
11114;BME280;5610;52.154;9.198;2022-12-18T01:52:06;102187.84;;;-6.11;100.00
11114;BME280;5610;52.154;9.198;2022-12-18T01:54:52;102190.84;;;-5.99;100.00
11114;BME280;5610;52.154;9.198;2022-12-18T01:57:39;102187.25;;;-6.02;100.00
11114;BME280;5610;52.154;9.198;2022-12-18T02:00:25;102194.81;;;-6.10;100.00
11114;BME280;5610;52.154;9.198;2022-12-18T02:03:11;102181.44;;;-6.22;100.00
11114;BME280;5610;52.154;9.198;2022-12-18T02:06:00;102186.84;;;-6.42;100.00
11114;BME280;5610;52.154;9.198;2022-12-18T02:09:00;102184.25;;;-6.42;100.00
11114;BME280;5610;52.154;9.198;2022-12-18T02:11:51;102183.38;;;-6.42;100.00
11114;BME280;5610;52.154;9.198;2022-12-18T02:14:40;102190.25;;;-6.44;100.00
11114;BME280;5610;52.154;9.198;2022-12-18T02:17:31;102194.09;;;-6.33;100.00
11114;BME280;5610;52.154;9.198;2022-12-18T02:20:23;102190.88;;;-6.24;100.00
11114;BME280;5610;52.154;9.198;2022-12-18T02:23:16;102188.47;;;-6.20;100.00
11114;BME280;5610;52.154;9.198;2022-12-18T02:26:13;102185.78;;;-6.21;100.00
11114;BME280;5610;52.154;9.198;2022-12-18T02:29:04;102183.16;;;-6.23;100.00
11114;BME280;5610;52.154;9.198;2022-12-18T02:31:56;102172.63;;;-6.27;100.00
11114;BME280;5610;52.154;9.198;2022-12-18T02:34:45;102170.34;;;-6.45;100.00
11114;BME280;5610;52.154;9.198;2022-12-18T02:37:33;102177.44;;;-6.40;100.00
11114;BME280;5610;52.154;9.198;2022-12-18T02:40:24;102175.75;;;-6.38;100.00
11114;BME280;5610;52.154;9.198;2022-12-18T02:43:14;102181.53;;;-6.46;100.00
11114;BME280;5610;52.154;9.198;2022-12-18T02:49:09;102169.16;;;-6.55;100.00
11114;BME280;5610;52.154;9.198;2022-12-18T02:52:02;102180.34;;;-6.56;100.00
11114;BME280;5610;52.154;9.198;2022-12-18T02:54:57;102171.06;;;-6.49;100.00
11114;BME280;5610;52.154;9.198;2022-12-18T02:57:50;102168.88;;;-6.37;100.00
11114;BME280;5610;52.154;9.198;2022-12-18T03:00:48;102164.56;;;-6.37;100.00
11114;BME280;5610;52.154;9.198;2022-12-18T03:03:39;102161.00;;;-6.40;100.00
11114;BME280;5610;52.154;9.198;2022-12-18T03:06:29;102166.22;;;-6.39;100.00
11114;BME280;5610;52.154;9.198;2022-12-18T03:09:19;102165.34;;;-6.39;100.00
11114;BME280;5610;52.154;9.198;2022-12-18T03:12:10;102167.94;;;-6.39;100.00
11114;BME280;5610;52.154;9.198;2022-12-18T03:15:10;102162.78;;;-6.38;100.00
11114;BME280;5610;52.154;9.198;2022-12-18T03:18:02;102164.22;;;-6.47;100.00
11114;BME280;5610;52.154;9.198;2022-12-18T03:20:51;102167.16;;;-6.37;100.00
11114;BME280;5610;52.154;9.198;2022-12-18T03:23:40;102181.00;;;-6.36;100.00
11114;BME280;5610;52.154;9.198;2022-12-18T03:26:29;102191.09;;;-6.18;100.00
11114;BME280;5610;52.154;9.198;2022-12-18T03:29:21;102186.97;;;-6.12;100.00
11114;BME280;5610;52.154;9.198;2022-12-18T03:32:11;102183.59;;;-6.09;100.00
11114;BME280;5610;52.154;9.198;2022-12-18T03:35:02;102187.16;;;-6.05;100.00
11114;BME280;5610;52.154;9.198;2022-12-18T03:37:51;102192.28;;;-6.07;100.00
11114;BME280;5610;52.154;9.198;2022-12-18T03:40:45;102192.25;;;-6.09;100.00
11114;BME280;5610;52.154;9.198;2022-12-18T03:43:39;102186.91;;;-6.13;100.00
11114;BME280;5610;52.154;9.198;2022-12-18T03:46:30;102191.97;;;-6.18;100.00
11114;BME280;5610;52.154;9.198;2022-12-18T03:49:23;102180.47;;;-6.26;100.00
11114;BME280;5610;52.154;9.198;2022-12-18T03:52:18;102191.38;;;-6.09;100.00
11114;BME280;5610;52.154;9.198;2022-12-18T03:55:07;102187.53;;;-5.93;100.00
11114;BME280;5610;52.154;9.198;2022-12-18T03:57:55;102187.81;;;-5.83;100.00
11114;BME280;5610;52.154;9.198;2022-12-18T04:00:43;102179.25;;;-5.80;100.00
11114;BME280;5610;52.154;9.198;2022-12-18T04:03:29;102183.47;;;-5.84;100.00
11114;BME280;5610;52.154;9.198;2022-12-18T04:06:17;102187.72;;;-5.86;100.00
11114;BME280;5610;52.154;9.198;2022-12-18T04:09:04;102179.81;;;-5.92;100.00
11114;BME280;5610;52.154;9.198;2022-12-18T04:11:54;102179.81;;;-5.90;100.00
11114;BME280;5610;52.154;9.198;2022-12-18T04:14:40;102177.13;;;-5.93;100.00
11114;BME280;5610;52.154;9.198;2022-12-18T04:17:27;102178.13;;;-5.88;100.00
11114;BME280;5610;52.154;9.198;2022-12-18T04:20:13;102176.56;;;-5.83;100.00
11114;BME280;5610;52.154;9.198;2022-12-18T04:23:00;102180.78;;;-5.87;100.00
11114;BME280;5610;52.154;9.198;2022-12-18T04:25:47;102183.59;;;-5.79;100.00
11114;BME280;5610;52.154;9.198;2022-12-18T04:28:40;102184.47;;;-5.78;100.00
11114;BME280;5610;52.154;9.198;2022-12-18T04:31:26;102176.47;;;-5.86;100.00
11114;BME280;5610;52.154;9.198;2022-12-18T04:34:12;102178.97;;;-5.91;100.00
11114;BME280;5610;52.154;9.198;2022-12-18T04:37:05;102184.09;;;-5.92;100.00
11114;BME280;5610;52.154;9.198;2022-12-18T04:39:50;102187.41;;;-5.98;100.00
11114;BME280;5610;52.154;9.198;2022-12-18T04:42:47;102192.38;;;-6.05;100.00
11114;BME280;5610;52.154;9.198;2022-12-18T04:45:33;102191.22;;;-6.14;100.00
11114;BME280;5610;52.154;9.198;2022-12-18T04:48:18;102195.47;;;-6.16;100.00
11114;BME280;5610;52.154;9.198;2022-12-18T04:51:05;102203.06;;;-6.22;100.00
11114;BME280;5610;52.154;9.198;2022-12-18T04:53:51;102188.19;;;-6.27;100.00
11114;BME280;5610;52.154;9.198;2022-12-18T04:56:36;102194.09;;;-6.33;100.00
11114;BME280;5610;52.154;9.198;2022-12-18T04:59:23;102185.81;;;-6.48;100.00
11114;BME280;5610;52.154;9.198;2022-12-18T05:02:08;102169.16;;;-6.55;100.00
11114;BME280;5610;52.154;9.198;2022-12-18T05:04:53;102174.69;;;-6.44;100.00
11114;BME280;5610;52.154;9.198;2022-12-18T05:07:39;102184.59;;;-6.58;100.00
11114;BME280;5610;52.154;9.198;2022-12-18T05:10:24;102188.97;;;-6.57;100.00
11114;BME280;5610;52.154;9.198;2022-12-18T05:13:10;102200.75;;;-6.67;100.00
11114;BME280;5610;52.154;9.198;2022-12-18T05:15:57;102195.50;;;-6.68;100.00
11114;BME280;5610;52.154;9.198;2022-12-18T05:18:42;102202.81;;;-6.56;100.00
11114;BME280;5610;52.154;9.198;2022-12-18T05:21:27;102184.41;;;-6.64;100.00
11114;BME280;5610;52.154;9.198;2022-12-18T05:24:12;102184.44;;;-6.63;100.00
11114;BME280;5610;52.154;9.198;2022-12-18T05:26:58;102183.31;;;-6.45;100.00
11114;BME280;5610;52.154;9.198;2022-12-18T05:29:43;102186.81;;;-6.43;100.00
11114;BME280;5610;52.154;9.198;2022-12-18T05:32:30;102191.25;;;-6.41;100.00
11114;BME280;5610;52.154;9.198;2022-12-18T05:35:15;102200.66;;;-6.43;100.00
11114;BME280;5610;52.154;9.198;2022-12-18T05:38:01;102202.59;;;-6.37;100.00
11114;BME280;5610;52.154;9.198;2022-12-18T05:40:47;102201.75;;;-6.36;100.00
11114;BME280;5610;52.154;9.198;2022-12-18T05:43:34;102205.09;;;-6.40;100.00
11114;BME280;5610;52.154;9.198;2022-12-18T05:46:19;102207.09;;;-6.31;100.00
11114;BME280;5610;52.154;9.198;2022-12-18T05:49:06;102212.38;;;-6.28;100.00
11114;BME280;5610;52.154;9.198;2022-12-18T05:51:51;102213.16;;;-6.31;100.00
11114;BME280;5610;52.154;9.198;2022-12-18T05:54:36;102198.38;;;-6.33;100.00
11114;BME280;5610;52.154;9.198;2022-12-18T05:57:23;102203.56;;;-6.33;100.00
11114;BME280;5610;52.154;9.198;2022-12-18T06:00:09;102206.56;;;-6.48;100.00
11114;BME280;5610;52.154;9.198;2022-12-18T06:02:56;102203.06;;;-6.49;100.00
11114;BME280;5610;52.154;9.198;2022-12-18T06:05:44;102204.63;;;-6.54;100.00
11114;BME280;5610;52.154;9.198;2022-12-18T06:08:30;102203.78;;;-6.78;100.00
11114;BME280;5610;52.154;9.198;2022-12-18T06:11:17;102195.88;;;-6.83;100.00
11114;BME280;5610;52.154;9.198;2022-12-18T06:14:04;102203.56;;;-6.84;100.00
11114;BME280;5610;52.154;9.198;2022-12-18T06:16:50;102207.75;;;-6.89;100.00
11114;BME280;5610;52.154;9.198;2022-12-18T06:19:35;102211.56;;;-6.78;100.00
11114;BME280;5610;52.154;9.198;2022-12-18T06:22:22;102213.75;;;-6.65;100.00
11114;BME280;5610;52.154;9.198;2022-12-18T06:25:08;102209.50;;;-6.63;100.00
11114;BME280;5610;52.154;9.198;2022-12-18T06:27:54;102201.47;;;-6.45;100.00
11114;BME280;5610;52.154;9.198;2022-12-18T06:30:39;102209.78;;;-6.28;100.00
11114;BME280;5610;52.154;9.198;2022-12-18T06:33:26;102211.28;;;-6.08;100.00
11114;BME280;5610;52.154;9.198;2022-12-18T06:36:13;102218.47;;;-5.99;100.00
11114;BME280;5610;52.154;9.198;2022-12-18T06:39:00;102223.19;;;-5.86;100.00
11114;BME280;5610;52.154;9.198;2022-12-18T06:41:45;102229.31;;;-5.84;100.00
11114;BME280;5610;52.154;9.198;2022-12-18T06:44:31;102229.31;;;-5.84;100.00
11114;BME280;5610;52.154;9.198;2022-12-18T06:47:16;102228.19;;;-5.94;100.00
11114;BME280;5610;52.154;9.198;2022-12-18T06:50:02;102230.69;;;-5.97;100.00
11114;BME280;5610;52.154;9.198;2022-12-18T06:52:47;102238.47;;;-5.97;100.00
11114;BME280;5610;52.154;9.198;2022-12-18T06:55:34;102243.47;;;-6.03;100.00
11114;BME280;5610;52.154;9.198;2022-12-18T06:58:22;102244.75;;;-6.17;100.00
11114;BME280;5610;52.154;9.198;2022-12-18T07:01:08;102249.06;;;-6.18;100.00
11114;BME280;5610;52.154;9.198;2022-12-18T07:03:55;102248.88;;;-6.22;100.00
11114;BME280;5610;52.154;9.198;2022-12-18T07:06:41;102251.41;;;-6.25;100.00
11114;BME280;5610;52.154;9.198;2022-12-18T07:09:26;102249.72;;;-6.23;100.00
11114;BME280;5610;52.154;9.198;2022-12-18T07:12:13;102252.13;;;-6.29;100.00
11114;BME280;5610;52.154;9.198;2022-12-18T07:14:58;102263.16;;;-6.35;100.00
11114;BME280;5610;52.154;9.198;2022-12-18T07:17:43;102268.78;;;-6.48;100.00
11114;BME280;5610;52.154;9.198;2022-12-18T07:20:28;102265.97;;;-6.29;100.00
11114;BME280;5610;52.154;9.198;2022-12-18T07:23:14;102265.25;;;-6.25;100.00
11114;BME280;5610;52.154;9.198;2022-12-18T07:26:01;102262.91;;;-6.17;100.00
11114;BME280;5610;52.154;9.198;2022-12-18T07:28:48;102268.97;;;-6.17;100.00
11114;BME280;5610;52.154;9.198;2022-12-18T07:31:34;102274.19;;;-6.15;100.00
11114;BME280;5610;52.154;9.198;2022-12-18T07:34:19;102269.75;;;-6.19;100.00
11114;BME280;5610;52.154;9.198;2022-12-18T07:37:05;102269.69;;;-6.21;100.00
11114;BME280;5610;52.154;9.198;2022-12-18T07:39:50;102261.72;;;-6.27;100.00
11114;BME280;5610;52.154;9.198;2022-12-18T07:42:35;102245.88;;;-6.34;100.00
11114;BME280;5610;52.154;9.198;2022-12-18T07:45:22;102243.75;;;-6.48;100.00
11114;BME280;5610;52.154;9.198;2022-12-18T07:48:07;102246.13;;;-6.54;100.00
11114;BME280;5610;52.154;9.198;2022-12-18T07:50:53;102251.50;;;-6.73;100.00
11114;BME280;5610;52.154;9.198;2022-12-18T07:53:39;102242.66;;;-6.78;100.00
11114;BME280;5610;52.154;9.198;2022-12-18T07:56:24;102252.38;;;-6.73;100.00
11114;BME280;5610;52.154;9.198;2022-12-18T07:59:10;102257.53;;;-6.74;100.00
11114;BME280;5610;52.154;9.198;2022-12-18T08:01:56;102251.84;;;-6.63;100.00
11114;BME280;5610;52.154;9.198;2022-12-18T08:04:42;102249.63;;;-6.52;100.00
11114;BME280;5610;52.154;9.198;2022-12-18T08:07:27;102243.19;;;-6.38;100.00
11114;BME280;5610;52.154;9.198;2022-12-18T08:10:13;102248.56;;;-6.06;100.00
11114;BME280;5610;52.154;9.198;2022-12-18T08:12:58;102243.75;;;-5.94;100.00
11114;BME280;5610;52.154;9.198;2022-12-18T08:15:44;102253.84;;;-5.74;100.00
11114;BME280;5610;52.154;9.198;2022-12-18T08:18:33;102241.34;;;-5.58;100.00
11114;BME280;5610;52.154;9.198;2022-12-18T08:21:21;102235.81;;;-5.41;100.00
11114;BME280;5610;52.154;9.198;2022-12-18T08:24:08;102236.53;;;-5.45;100.00
11114;BME280;5610;52.154;9.198;2022-12-18T08:26:53;102234.59;;;-5.22;100.00
11114;BME280;5610;52.154;9.198;2022-12-18T08:29:38;102231.31;;;-5.15;100.00
11114;BME280;5610;52.154;9.198;2022-12-18T08:32:24;102231.22;;;-4.88;100.00
11114;BME280;5610;52.154;9.198;2022-12-18T08:35:11;102217.22;;;-4.60;100.00
11114;BME280;5610;52.154;9.198;2022-12-18T08:37:56;102225.59;;;-4.37;100.00
11114;BME280;5610;52.154;9.198;2022-12-18T08:40:42;102218.13;;;-4.24;100.00
11114;BME280;5610;52.154;9.198;2022-12-18T08:43:27;102223.63;;;-4.11;100.00
11114;BME280;5610;52.154;9.198;2022-12-18T08:46:30;102225.19;;;-4.20;100.00
11114;BME280;5610;52.154;9.198;2022-12-18T08:49:16;102209.94;;;-4.03;100.00
11114;BME280;5610;52.154;9.198;2022-12-18T08:52:03;102213.16;;;-3.77;100.00
11114;BME280;5610;52.154;9.198;2022-12-18T08:54:48;102217.94;;;-3.57;100.00
11114;BME280;5610;52.154;9.198;2022-12-18T08:57:34;102215.66;;;-3.41;100.00
11114;BME280;5610;52.154;9.198;2022-12-18T09:00:19;102214.38;;;-3.19;100.00
11114;BME280;5610;52.154;9.198;2022-12-18T09:03:05;102215.59;;;-3.01;100.00
11114;BME280;5610;52.154;9.198;2022-12-18T09:05:50;102217.78;;;-2.76;100.00
11114;BME280;5610;52.154;9.198;2022-12-18T09:08:37;102217.34;;;-2.54;100.00
11114;BME280;5610;52.154;9.198;2022-12-18T09:11:24;102225.56;;;-2.32;100.00
11114;BME280;5610;52.154;9.198;2022-12-18T09:14:09;102235.63;;;-1.99;100.00
11114;BME280;5610;52.154;9.198;2022-12-18T09:16:54;102221.59;;;-1.47;100.00
11114;BME280;5610;52.154;9.198;2022-12-18T09:19:40;102207.38;;;-0.97;100.00
11114;BME280;5610;52.154;9.198;2022-12-18T09:22:25;102202.50;;;-0.59;98.86
11114;BME280;5610;52.154;9.198;2022-12-18T09:25:12;102183.81;;;0.05;95.41
11114;BME280;5610;52.154;9.198;2022-12-18T09:27:57;102192.84;;;0.60;90.08
11114;BME280;5610;52.154;9.198;2022-12-18T09:30:45;102201.59;;;0.58;87.43
11114;BME280;5610;52.154;9.198;2022-12-18T09:33:31;102194.75;;;1.02;84.24
11114;BME280;5610;52.154;9.198;2022-12-18T09:36:17;102185.13;;;1.09;81.83
11114;BME280;5610;52.154;9.198;2022-12-18T09:39:03;102185.13;;;1.10;83.10
11114;BME280;5610;52.154;9.198;2022-12-18T09:41:52;102200.00;;;1.12;82.18
11114;BME280;5610;52.154;9.198;2022-12-18T09:44:41;102196.47;;;1.05;81.85
11114;BME280;5610;52.154;9.198;2022-12-18T09:47:33;102206.06;;;0.80;82.32
11114;BME280;5610;52.154;9.198;2022-12-18T09:50:24;102194.59;;;0.60;82.63
11114;BME280;5610;52.154;9.198;2022-12-18T09:53:15;102195.88;;;-0.20;87.42
11114;BME280;5610;52.154;9.198;2022-12-18T09:56:03;102186.50;;;0.15;87.34
11114;BME280;5610;52.154;9.198;2022-12-18T09:58:55;102183.88;;;0.20;87.34
11114;BME280;5610;52.154;9.198;2022-12-18T10:01:43;102200.47;;;0.14;87.02
11114;BME280;5610;52.154;9.198;2022-12-18T10:04:29;102201.44;;;0.30;87.09
11114;BME280;5610;52.154;9.198;2022-12-18T10:07:19;102205.72;;;0.17;86.89
11114;BME280;5610;52.154;9.198;2022-12-18T10:10:14;102195.47;;;0.60;85.92
11114;BME280;5610;52.154;9.198;2022-12-18T10:13:11;102199.03;;;0.76;84.73
11114;BME280;5610;52.154;9.198;2022-12-18T10:16:11;102194.81;;;1.41;82.91
11114;BME280;5610;52.154;9.198;2022-12-18T10:19:10;102186.03;;;2.03;80.59
11114;BME280;5610;52.154;9.198;2022-12-18T10:22:09;102192.97;;;2.36;77.05
11114;BME280;5610;52.154;9.198;2022-12-18T10:25:02;102199.88;;;2.69;75.40
11114;BME280;5610;52.154;9.198;2022-12-18T10:27:51;102199.56;;;3.32;73.13
11114;BME280;5610;52.154;9.198;2022-12-18T10:30:39;102188.63;;;3.82;70.72
11114;BME280;5610;52.154;9.198;2022-12-18T10:33:29;102183.41;;;3.74;68.88
11114;BME280;5610;52.154;9.198;2022-12-18T10:36:15;102190.38;;;3.80;68.69
11114;BME280;5610;52.154;9.198;2022-12-18T10:39:14;102180.31;;;4.23;68.78
11114;BME280;5610;52.154;9.198;2022-12-18T10:42:10;102175.50;;;5.20;65.09
11114;BME280;5610;52.154;9.198;2022-12-18T10:45:01;102155.50;;;5.04;63.50
11114;BME280;5610;52.154;9.198;2022-12-18T10:47:48;102143.75;;;4.62;63.43
11114;BME280;5610;52.154;9.198;2022-12-18T10:50:37;102149.56;;;4.19;65.50
11114;BME280;5610;52.154;9.198;2022-12-18T10:53:24;102153.72;;;3.52;66.71
11114;BME280;5610;52.154;9.198;2022-12-18T10:56:10;102157.66;;;2.92;70.06
11114;BME280;5610;52.154;9.198;2022-12-18T10:58:58;102146.06;;;3.19;70.57
11114;BME280;5610;52.154;9.198;2022-12-18T11:01:47;102142.53;;;3.24;71.17
11114;BME280;5610;52.154;9.198;2022-12-18T11:04:33;102136.44;;;3.13;70.93
11114;BME280;5610;52.154;9.198;2022-12-18T11:07:20;102125.38;;;4.54;69.02
11114;BME280;5610;52.154;9.198;2022-12-18T11:10:16;102116.91;;;6.00;62.64
11114;BME280;5610;52.154;9.198;2022-12-18T11:13:15;102103.72;;;6.41;60.30
11114;BME280;5610;52.154;9.198;2022-12-18T11:16:01;102109.03;;;6.41;58.15
11114;BME280;5610;52.154;9.198;2022-12-18T11:18:47;102104.75;;;7.14;57.05
11114;BME280;5610;52.154;9.198;2022-12-18T11:21:39;102094.09;;;7.85;55.30
11114;BME280;5610;52.154;9.198;2022-12-18T11:24:29;102094.78;;;7.92;54.70
11114;BME280;5610;52.154;9.198;2022-12-18T11:27:17;102089.50;;;6.86;55.72
11114;BME280;5610;52.154;9.198;2022-12-18T11:30:13;102074.25;;;5.71;58.01
11114;BME280;5610;52.154;9.198;2022-12-18T11:33:06;102068.72;;;6.28;58.13
11114;BME280;5610;52.154;9.198;2022-12-18T11:35:58;102063.44;;;7.04;55.95
11114;BME280;5610;52.154;9.198;2022-12-18T11:38:48;102052.56;;;7.50;54.57
11114;BME280;5610;52.154;9.198;2022-12-18T11:41:39;102065.06;;;7.11;54.79
11114;BME280;5610;52.154;9.198;2022-12-18T11:44:48;102056.44;;;6.24;56.40
11114;BME280;5610;52.154;9.198;2022-12-18T11:47:39;102053.25;;;6.08;57.58
11114;BME280;5610;52.154;9.198;2022-12-18T11:50:31;102038.75;;;5.81;58.31
11114;BME280;5610;52.154;9.198;2022-12-18T11:53:18;102037.09;;;5.28;58.84
11114;BME280;5610;52.154;9.198;2022-12-18T11:56:12;102022.47;;;5.07;59.35
11114;BME280;5610;52.154;9.198;2022-12-18T11:59:07;102023.97;;;4.69;61.05
11114;BME280;5610;52.154;9.198;2022-12-18T12:02:05;102023.34;;;4.52;61.84
11114;BME280;5610;52.154;9.198;2022-12-18T12:05:10;102030.91;;;4.13;62.54
11114;BME280;5610;52.154;9.198;2022-12-18T12:08:09;102023.44;;;3.73;63.99
11114;BME280;5610;52.154;9.198;2022-12-18T12:11:02;102017.53;;;3.54;65.52
11114;BME280;5610;52.154;9.198;2022-12-18T12:14:10;102008.28;;;3.12;66.52
11114;BME280;5610;52.154;9.198;2022-12-18T12:17:08;101993.88;;;3.48;67.10
11114;BME280;5610;52.154;9.198;2022-12-18T12:20:02;101994.09;;;3.27;67.86
11114;BME280;5610;52.154;9.198;2022-12-18T12:22:57;101990.66;;;3.16;68.65
11114;BME280;5610;52.154;9.198;2022-12-18T12:25:48;101992.69;;;2.89;70.35
11114;BME280;5610;52.154;9.198;2022-12-18T12:28:50;101993.19;;;2.10;73.53
11114;BME280;5610;52.154;9.198;2022-12-18T12:31:55;101992.25;;;2.22;75.92
11114;BME280;5610;52.154;9.198;2022-12-18T12:34:49;101979.16;;;2.18;78.11
11114;BME280;5610;52.154;9.198;2022-12-18T12:37:44;101976.53;;;2.11;79.63
11114;BME280;5610;52.154;9.198;2022-12-18T12:40:36;101978.41;;;1.87;81.58
11114;BME280;5610;52.154;9.198;2022-12-18T12:43:28;101981.88;;;1.89;82.56
11114;BME280;5610;52.154;9.198;2022-12-18T12:46:16;101983.66;;;1.87;83.24
11114;BME280;5610;52.154;9.198;2022-12-18T12:49:11;101982.78;;;1.91;83.65
11114;BME280;5610;52.154;9.198;2022-12-18T12:51:59;101982.78;;;1.88;84.38
11114;BME280;5610;52.154;9.198;2022-12-18T12:54:48;101988.91;;;1.92;84.46
11114;BME280;5610;52.154;9.198;2022-12-18T12:57:37;101992.38;;;1.97;84.76
11114;BME280;5610;52.154;9.198;2022-12-18T13:00:25;101995.91;;;1.95;85.50
11114;BME280;5610;52.154;9.198;2022-12-18T13:03:18;101980.13;;;1.98;85.14
11114;BME280;5610;52.154;9.198;2022-12-18T13:06:14;101967.84;;;1.97;85.26
11114;BME280;5610;52.154;9.198;2022-12-18T13:09:01;101953.06;;;1.77;86.31
11114;BME280;5610;52.154;9.198;2022-12-18T13:11:47;101957.41;;;1.80;87.37
11114;BME280;5610;52.154;9.198;2022-12-18T13:14:50;101964.47;;;1.61;87.46
11114;BME280;5610;52.154;9.198;2022-12-18T13:17:35;101971.50;;;1.59;88.28
11114;BME280;5610;52.154;9.198;2022-12-18T13:20:21;101962.78;;;1.55;89.79
11114;BME280;5610;52.154;9.198;2022-12-18T13:23:27;101968.03;;;1.57;90.76
11114;BME280;5610;52.154;9.198;2022-12-18T13:26:31;101977.66;;;1.52;91.22
11114;BME280;5610;52.154;9.198;2022-12-18T13:29:41;101967.19;;;1.32;92.88
11114;BME280;5610;52.154;9.198;2022-12-18T13:32:26;101963.69;;;1.33;93.47
11114;BME280;5610;52.154;9.198;2022-12-18T13:35:37;101955.84;;;1.30;94.78
11114;BME280;5610;52.154;9.198;2022-12-18T13:38:33;101942.69;;;1.27;95.60
11114;BME280;5610;52.154;9.198;2022-12-18T13:41:23;101940.97;;;1.23;97.07
11114;BME280;5610;52.154;9.198;2022-12-18T13:44:12;101926.97;;;1.19;98.46
11114;BME280;5610;52.154;9.198;2022-12-18T13:46:58;101936.63;;;1.00;99.58
11114;BME280;5610;52.154;9.198;2022-12-18T13:49:44;101938.38;;;1.01;100.00
11114;BME280;5610;52.154;9.198;2022-12-18T13:52:36;101934.88;;;0.90;100.00
11114;BME280;5610;52.154;9.198;2022-12-18T13:55:25;101931.41;;;0.82;100.00
11114;BME280;5610;52.154;9.198;2022-12-18T13:58:11;101924.41;;;0.75;100.00
11114;BME280;5610;52.154;9.198;2022-12-18T14:00:57;101914.81;;;0.51;100.00
11114;BME280;5610;52.154;9.198;2022-12-18T14:03:43;101910.44;;;0.30;100.00
11114;BME280;5610;52.154;9.198;2022-12-18T14:06:29;101911.25;;;0.12;100.00
11114;BME280;5610;52.154;9.198;2022-12-18T14:09:15;101906.91;;;0.16;100.00
11114;BME280;5610;52.154;9.198;2022-12-18T14:12:06;101899.06;;;0.23;100.00
11114;BME280;5610;52.154;9.198;2022-12-18T14:15:20;101887.66;;;0.02;100.00
11114;BME280;5610;52.154;9.198;2022-12-18T14:18:19;101881.53;;;-0.02;100.00
11114;BME280;5610;52.154;9.198;2022-12-18T14:21:06;101883.28;;;-0.10;100.00
11114;BME280;5610;52.154;9.198;2022-12-18T14:24:03;101882.41;;;-0.09;100.00
11114;BME280;5610;52.154;9.198;2022-12-18T14:26:50;101878.94;;;-0.07;100.00
11114;BME280;5610;52.154;9.198;2022-12-18T14:29:42;101874.53;;;-0.02;100.00
11114;BME280;5610;52.154;9.198;2022-12-18T14:32:28;101881.50;;;-0.28;100.00
11114;BME280;5610;52.154;9.198;2022-12-18T14:35:13;101884.13;;;-0.17;100.00
11114;BME280;5610;52.154;9.198;2022-12-18T14:38:23;101893.72;;;-0.16;100.00
11114;BME280;5610;52.154;9.198;2022-12-18T14:41:11;101900.69;;;-0.26;100.00
11114;BME280;5610;52.154;9.198;2022-12-18T14:44:05;101899.84;;;-0.19;100.00
11114;BME280;5610;52.154;9.198;2022-12-18T14:46:52;101892.84;;;-0.23;100.00
11114;BME280;5610;52.154;9.198;2022-12-18T14:49:41;101883.25;;;-0.25;100.00
11114;BME280;5610;52.154;9.198;2022-12-18T14:52:29;101868.41;;;-0.26;100.00